Time;durP1;ratioP1;P1;durP2;ratioP2;P2;SDS_P1;SDS_P2;PMS_P1;PMS_P2;Temp;Humidity;BMP_temperature;BMP_pressure;BME280_temperature;BME280_humidity;BME280_pressure;Samples;Min_cycle;Max_cycle;Signal;HPM_P1;HPM_P2
2023/05/01 00:00:03;;;;;;;8.63;5.60;;;8.60;99.90;;;;;;5027389;28;20033;-37
2023/05/01 00:02:29;;;;;;;7.55;5.75;;;8.60;99.90;;;;;;5025435;28;20047;-37
2023/05/01 00:04:55;;;;;;;6.68;5.75;;;8.60;99.90;;;;;;5023188;28;20034;-37
2023/05/01 00:07:21;;;;;;;8.55;6.10;;;8.60;99.90;;;;;;5001547;28;20498;-37
2023/05/01 00:09:46;;;;;;;6.75;5.57;;;8.70;99.90;;;;;;5019933;28;20034;-37
2023/05/01 00:12:12;;;;;;;7.75;5.70;;;8.70;99.90;;;;;;5024800;28;20032;-37
2023/05/01 00:14:38;;;;;;;7.53;6.25;;;8.70;99.90;;;;;;5022419;28;20037;-37
2023/05/01 00:17:03;;;;;;;6.75;5.70;;;8.80;99.90;;;;;;5020687;28;20745;-37
2023/05/01 00:19:29;;;;;;;8.85;6.30;;;8.70;99.90;;;;;;5021429;28;20056;-37
2023/05/01 00:21:54;;;;;;;5.90;5.30;;;8.70;99.90;;;;;;5026931;28;20029;-37
2023/05/01 00:24:20;;;;;;;8.57;6.47;;;8.70;99.90;;;;;;5025338;28;20033;-37
2023/05/01 00:26:46;;;;;;;8.85;6.13;;;8.70;99.90;;;;;;5021035;28;20045;-38
2023/05/01 00:29:12;;;;;;;7.80;6.00;;;8.70;99.90;;;;;;5025503;28;20095;-38
2023/05/01 00:31:37;;;;;;;7.20;5.78;;;8.70;99.90;;;;;;5021495;28;20029;-37
2023/05/01 00:34:04;;;;;;;6.93;6.10;;;8.60;99.90;;;;;;5018768;28;20142;-37
2023/05/01 00:36:30;;;;;;;7.22;6.00;;;8.50;99.90;;;;;;5025035;28;20124;-37
2023/05/01 00:38:56;;;;;;;10.45;6.43;;;8.60;99.90;;;;;;5025155;28;20087;-37
2023/05/01 00:41:21;;;;;;;9.88;6.25;;;8.50;99.90;;;;;;5020003;28;20033;-37
2023/05/01 00:43:47;;;;;;;9.00;6.30;;;8.50;99.90;;;;;;5026172;28;20034;-37
2023/05/01 00:46:13;;;;;;;10.10;5.97;;;8.50;99.90;;;;;;5017127;28;20053;-37
2023/05/01 00:48:38;;;;;;;7.43;5.50;;;8.50;99.90;;;;;;5024942;28;20030;-37
2023/05/01 00:51:06;;;;;;;7.47;5.65;;;8.50;99.90;;;;;;5022980;28;20049;-37
2023/05/01 00:53:33;;;;;;;6.23;5.53;;;8.40;99.90;;;;;;5025865;28;20364;-37
2023/05/01 00:55:59;;;;;;;7.57;5.57;;;8.40;99.90;;;;;;5030362;28;20510;-37
2023/05/01 00:58:25;;;;;;;6.90;5.50;;;8.50;99.90;;;;;;5046995;28;20674;-37
2023/05/01 01:00:51;;;;;;;9.05;5.47;;;8.50;99.90;;;;;;5044883;28;20040;-37
2023/05/01 01:03:17;;;;;;;8.27;5.93;;;8.30;99.90;;;;;;5042971;28;20037;-37
2023/05/01 01:05:55;;;;;;;6.80;6.03;;;8.10;99.90;;;;;;5042587;28;20367;-37
2023/05/01 01:08:32;;;;;;;7.82;5.78;;;8.00;99.90;;;;;;5039530;28;20029;-37
2023/05/01 01:11:13;;;;;;;8.20;6.55;;;8.00;99.90;;;;;;5039590;28;20051;-37
2023/05/01 01:13:46;;;;;;;7.93;5.30;;;8.00;99.90;;;;;;5044737;28;20032;-38
2023/05/01 01:16:20;;;;;;;7.93;5.90;;;8.00;99.90;;;;;;5046015;28;20037;-37
2023/05/01 01:18:59;;;;;;;7.32;5.75;;;8.00;99.90;;;;;;5045306;28;20048;-37
2023/05/01 01:21:33;;;;;;;7.88;6.25;;;8.00;99.90;;;;;;5035124;28;20037;-37
2023/05/01 01:24:25;;;;;;;7.95;6.05;;;8.00;99.90;;;;;;5041948;28;20025;-37
2023/05/01 01:26:51;;;;;;;8.25;5.80;;;8.00;99.90;;;;;;5039823;28;20068;-37
2023/05/01 01:29:32;;;;;;;6.28;5.32;;;8.00;99.90;;;;;;5045088;28;20474;-37
2023/05/01 01:32:36;;;;;;;6.05;5.45;;;8.00;99.90;;;;;;5045301;28;20040;-37
2023/05/01 01:35:11;;;;;;;7.47;5.50;;;8.10;99.90;;;;;;5046574;28;20021;-37
2023/05/01 01:37:50;;;;;;;6.30;5.50;;;8.20;99.90;;;;;;5046508;28;20474;-37
2023/05/01 01:40:21;;;;;;;7.00;5.68;;;8.00;99.90;;;;;;5044693;28;20021;-37
2023/05/01 01:42:52;;;;;;;7.28;5.53;;;8.00;99.90;;;;;;5040153;28;20382;-37
2023/05/01 01:45:22;;;;;;;9.27;5.68;;;7.90;99.90;;;;;;5043013;28;20032;-37
2023/05/01 01:47:49;;;;;;;8.07;5.55;;;7.80;99.90;;;;;;5043606;28;20398;-37
2023/05/01 01:50:17;;;;;;;9.00;5.97;;;7.70;99.90;;;;;;5044556;28;20068;-37
2023/05/01 01:52:46;;;;;;;7.90;6.07;;;7.70;99.90;;;;;;5044557;28;20411;-37
2023/05/01 01:55:13;;;;;;;6.32;5.60;;;7.60;99.90;;;;;;5044405;28;20106;-37
2023/05/01 01:57:42;;;;;;;9.88;6.32;;;7.60;99.90;;;;;;5044629;28;20045;-37
2023/05/01 02:00:09;;;;;;;7.72;5.82;;;7.50;99.90;;;;;;5042717;28;20051;-37
2023/05/01 02:02:38;;;;;;;8.73;6.47;;;7.50;99.90;;;;;;5039122;28;20036;-37
2023/05/01 02:05:07;;;;;;;7.90;6.15;;;7.40;99.90;;;;;;5045239;28;20082;-37
2023/05/01 02:07:36;;;;;;;9.15;6.38;;;7.30;99.90;;;;;;5043628;28;20036;-37
2023/05/01 02:10:04;;;;;;;9.25;6.53;;;7.30;99.90;;;;;;5043559;28;20025;-37
2023/05/01 02:12:30;;;;;;;8.38;6.28;;;7.30;99.90;;;;;;5043074;28;20591;-37
2023/05/01 02:14:58;;;;;;;8.50;6.68;;;7.20;99.90;;;;;;5045183;28;20032;-37
2023/05/01 02:17:26;;;;;;;7.53;6.18;;;7.30;99.90;;;;;;5044844;28;20033;-37
2023/05/01 02:19:53;;;;;;;8.80;6.38;;;7.30;99.90;;;;;;5043437;28;20521;-37
2023/05/01 02:22:21;;;;;;;8.40;6.70;;;7.30;99.90;;;;;;5041377;28;20045;-37
2023/05/01 02:24:48;;;;;;;7.95;6.72;;;7.20;99.90;;;;;;5044556;28;20063;-37
2023/05/01 02:27:22;;;;;;;8.40;6.53;;;7.20;99.90;;;;;;5044911;28;20033;-37
2023/05/01 02:29:47;;;;;;;8.95;6.70;;;7.20;99.90;;;;;;5043602;28;20032;-37
2023/05/01 02:32:13;;;;;;;9.25;6.53;;;7.30;99.90;;;;;;5044291;28;20029;-37
2023/05/01 02:34:39;;;;;;;7.53;6.25;;;7.30;99.90;;;;;;5044710;28;20782;-37
2023/05/01 02:37:06;;;;;;;9.13;6.68;;;7.40;99.90;;;;;;5035683;28;20899;-37
2023/05/01 02:39:33;;;;;;;8.95;6.38;;;7.30;99.90;;;;;;5048129;28;20021;-37
2023/05/01 02:42:02;;;;;;;7.85;6.00;;;7.30;99.90;;;;;;5049392;28;20032;-37
2023/05/01 02:44:31;;;;;;;8.15;6.40;;;7.40;99.90;;;;;;5042239;28;20108;-37
2023/05/01 02:46:59;;;;;;;9.05;6.30;;;7.40;99.90;;;;;;5036434;28;20120;-37
2023/05/01 02:49:26;;;;;;;8.90;6.65;;;7.40;99.90;;;;;;5037927;28;20079;-37
2023/05/01 02:51:52;;;;;;;8.38;6.65;;;7.40;99.90;;;;;;5047823;28;20090;-37
2023/05/01 02:54:19;;;;;;;9.30;6.75;;;7.50;99.90;;;;;;5040969;28;20370;-37
2023/05/01 02:56:45;;;;;;;11.07;7.15;;;7.60;99.90;;;;;;5043409;28;20052;-37
2023/05/01 02:59:10;;;;;;;9.45;6.50;;;7.60;99.90;;;;;;5046640;28;20029;-37
2023/05/01 03:01:36;;;;;;;7.38;5.80;;;7.60;99.90;;;;;;5027048;28;20497;-37
2023/05/01 03:04:02;;;;;;;6.53;5.63;;;7.60;99.90;;;;;;5040990;28;20048;-37
2023/05/01 03:06:29;;;;;;;10.15;6.45;;;7.60;99.90;;;;;;5040987;28;20033;-37
2023/05/01 03:08:55;;;;;;;9.65;6.65;;;7.60;99.90;;;;;;5046463;28;20025;-37
2023/05/01 03:11:21;;;;;;;9.32;6.65;;;7.60;99.90;;;;;;5046556;28;20025;-37
2023/05/01 03:13:47;;;;;;;7.97;6.20;;;7.60;99.90;;;;;;5046776;28;20044;-37
2023/05/01 03:16:13;;;;;;;7.85;5.80;;;7.60;99.90;;;;;;5047348;28;20041;-37
2023/05/01 03:18:38;;;;;;;9.82;5.97;;;7.70;99.90;;;;;;5046362;28;20025;-37
2023/05/01 03:21:04;;;;;;;8.15;6.10;;;7.80;99.90;;;;;;5044096;28;20099;-37
2023/05/01 03:23:29;;;;;;;10.20;6.35;;;7.90;99.90;;;;;;5038586;28;20493;-37
2023/05/01 03:25:56;;;;;;;8.13;6.03;;;7.90;99.90;;;;;;5048558;28;20037;-37
2023/05/01 03:28:22;;;;;;;8.55;5.85;;;7.80;99.90;;;;;;5046734;28;20086;-37
2023/05/01 03:30:50;;;;;;;8.60;5.50;;;7.60;99.90;;;;;;5045482;28;20033;-37
2023/05/01 03:33:15;;;;;;;6.70;5.60;;;7.60;99.90;;;;;;5043281;28;20426;-37
2023/05/01 03:35:41;;;;;;;6.82;5.85;;;7.70;99.90;;;;;;5048074;28;20024;-37
2023/05/01 03:38:07;;;;;;;10.93;6.60;;;7.70;99.90;;;;;;5042212;28;20099;-37
2023/05/01 03:40:33;;;;;;;8.13;6.00;;;7.60;99.90;;;;;;5045267;28;20044;-38
2023/05/01 03:42:59;;;;;;;8.57;5.82;;;7.60;99.90;;;;;;5047095;28;20136;-37
2023/05/01 03:45:25;;;;;;;8.07;6.07;;;7.60;99.90;;;;;;5035942;28;20108;-37
2023/05/01 03:47:51;;;;;;;9.07;6.15;;;7.60;99.90;;;;;;5028699;28;20083;-37
2023/05/01 03:50:16;;;;;;;6.57;5.93;;;7.60;99.90;;;;;;5046885;28;20377;-37
2023/05/01 03:52:42;;;;;;;8.18;6.43;;;7.50;99.90;;;;;;5026411;28;20669;-37
2023/05/01 03:55:08;;;;;;;8.88;6.03;;;7.40;99.90;;;;;;5044360;28;20040;-37
2023/05/01 03:57:33;;;;;;;7.50;5.80;;;7.40;99.90;;;;;;5046595;28;20600;-37
2023/05/01 03:59:59;;;;;;;7.22;6.10;;;7.30;99.90;;;;;;5041425;28;20037;-38
2023/05/01 04:02:26;;;;;;;8.77;6.07;;;7.20;99.90;;;;;;5035646;28;20034;-37
2023/05/01 04:04:51;;;;;;;7.80;6.70;;;7.00;99.90;;;;;;5043837;28;20029;-37
2023/05/01 04:07:17;;;;;;;8.15;6.18;;;7.00;99.90;;;;;;5042843;28;20021;-37
2023/05/01 04:09:43;;;;;;;10.10;6.35;;;7.00;99.90;;;;;;5044792;28;20040;-37
2023/05/01 04:12:08;;;;;;;9.77;6.70;;;7.10;99.90;;;;;;5042104;28;20526;-37
2023/05/01 04:14:34;;;;;;;8.75;7.07;;;7.10;99.90;;;;;;5046189;28;20441;-37
2023/05/01 04:17:00;;;;;;;9.63;7.05;;;7.10;99.90;;;;;;5042384;28;20116;-37
2023/05/01 04:19:26;;;;;;;9.23;6.35;;;7.10;99.90;;;;;;5042995;28;20128;-37
2023/05/01 04:21:52;;;;;;;10.95;7.35;;;7.10;99.90;;;;;;5047639;28;20497;-37
2023/05/01 04:24:17;;;;;;;9.25;6.40;;;7.10;99.90;;;;;;5037160;28;21805;-37
2023/05/01 04:26:43;;;;;;;8.38;6.28;;;7.20;99.90;;;;;;5045797;28;20224;-37
2023/05/01 04:29:08;;;;;;;9.30;6.70;;;7.20;99.90;;;;;;5038689;28;21313;-37
2023/05/01 04:31:34;;;;;;;8.73;6.65;;;7.20;99.90;;;;;;5021187;28;20037;-37
2023/05/01 04:34:00;;;;;;;9.93;6.68;;;7.20;99.90;;;;;;5040248;28;20025;-37
2023/05/01 04:36:26;;;;;;;10.15;6.53;;;7.20;99.90;;;;;;5042813;28;20738;-37
2023/05/01 04:38:51;;;;;;;8.23;6.45;;;7.30;99.90;;;;;;5038599;28;20086;-37
2023/05/01 04:41:18;;;;;;;8.00;6.50;;;7.30;99.90;;;;;;5044434;28;20516;-37
2023/05/01 04:43:43;;;;;;;10.82;6.65;;;7.30;99.90;;;;;;5042466;28;20044;-37
2023/05/01 04:46:09;;;;;;;7.28;6.15;;;7.30;99.90;;;;;;5045419;28;20037;-37
2023/05/01 04:48:35;;;;;;;9.05;6.25;;;7.30;99.90;;;;;;5044665;28;20516;-37
2023/05/01 04:51:02;;;;;;;8.15;6.20;;;7.30;99.90;;;;;;5039855;28;20029;-37
2023/05/01 04:53:28;;;;;;;7.47;6.03;;;7.40;99.90;;;;;;5045467;28;20017;-37
2023/05/01 04:55:53;;;;;;;8.45;6.28;;;7.40;99.90;;;;;;5028944;28;20056;-37
2023/05/01 04:58:19;;;;;;;7.20;5.93;;;7.40;99.90;;;;;;5043590;28;20114;-37
2023/05/01 05:00:45;;;;;;;7.88;6.22;;;7.40;99.90;;;;;;5044311;28;20524;-37
2023/05/01 05:03:10;;;;;;;7.97;6.35;;;7.40;99.90;;;;;;5046418;28;20032;-37
2023/05/01 05:05:36;;;;;;;9.43;6.63;;;7.50;99.90;;;;;;5045528;28;20024;-37
2023/05/01 05:08:01;;;;;;;10.27;6.47;;;7.50;99.90;;;;;;5036135;28;20052;-37
2023/05/01 05:10:27;;;;;;;8.88;6.40;;;7.50;99.90;;;;;;5037109;28;20028;-37
2023/05/01 05:12:53;;;;;;;7.97;6.25;;;7.50;99.90;;;;;;5040689;28;20029;-38
2023/05/01 05:15:18;;;;;;;9.57;6.70;;;7.60;99.90;;;;;;5045359;28;20523;-38
2023/05/01 05:17:44;;;;;;;7.63;6.20;;;7.60;99.90;;;;;;5043550;28;20111;-37
2023/05/01 05:20:10;;;;;;;9.38;6.22;;;7.60;99.90;;;;;;5042870;28;20115;-38
2023/05/01 05:22:36;;;;;;;8.93;6.10;;;7.60;99.90;;;;;;5046094;28;20041;-37
2023/05/01 05:25:03;;;;;;;7.95;5.97;;;7.60;99.90;;;;;;5027906;28;20047;-37
2023/05/01 05:27:36;;;;;;;8.10;5.55;;;7.70;99.90;;;;;;5044712;28;20390;-37
2023/05/01 05:30:04;;;;;;;6.88;5.88;;;7.70;99.90;;;;;;5044085;28;20017;-37
2023/05/01 05:32:30;;;;;;;8.25;5.88;;;7.70;99.90;;;;;;5039377;28;20033;-37
2023/05/01 05:34:56;;;;;;;7.32;6.07;;;7.70;99.90;;;;;;5039253;28;20021;-37
2023/05/01 05:37:23;;;;;;;8.32;6.63;;;7.70;99.90;;;;;;5040039;28;20033;-37
2023/05/01 05:39:48;;;;;;;7.50;5.80;;;7.70;99.90;;;;;;5045706;28;20033;-37
2023/05/01 05:42:14;;;;;;;6.95;5.53;;;7.70;99.90;;;;;;5036664;28;20025;-38
2023/05/01 05:44:40;;;;;;;6.55;5.70;;;7.80;99.90;;;;;;5041773;28;20474;-37
2023/05/01 05:47:05;;;;;;;6.78;5.60;;;7.80;99.90;;;;;;5029893;28;20064;-37
2023/05/01 05:49:31;;;;;;;8.38;5.95;;;7.80;99.90;;;;;;5042538;28;20024;-37
2023/05/01 05:51:57;;;;;;;8.25;6.00;;;7.90;99.90;;;;;;5044246;28;20029;-38
2023/05/01 05:54:23;;;;;;;7.65;5.85;;;8.00;99.90;;;;;;5044061;28;20025;-37
2023/05/01 05:56:48;;;;;;;6.43;5.45;;;8.00;99.90;;;;;;5035681;28;20152;-37
2023/05/01 05:59:14;;;;;;;7.05;5.70;;;7.90;99.90;;;;;;5022740;28;20115;-38
2023/05/01 06:01:41;;;;;;;8.40;5.60;;;7.90;99.90;;;;;;5041676;28;20029;-38
2023/05/01 06:04:07;;;;;;;7.50;6.03;;;8.00;99.90;;;;;;5044283;28;20540;-38
2023/05/01 06:06:33;;;;;;;6.75;5.60;;;8.00;99.90;;;;;;5045852;28;20032;-38
2023/05/01 06:08:59;;;;;;;6.47;5.57;;;8.00;99.90;;;;;;5041630;28;20029;-38
2023/05/01 06:11:25;;;;;;;8.85;5.68;;;8.00;99.90;;;;;;5043366;28;20090;-38
2023/05/01 06:13:51;;;;;;;7.20;6.00;;;8.00;99.90;;;;;;5041828;28;20029;-37
2023/05/01 06:16:17;;;;;;;8.90;6.38;;;8.10;99.90;;;;;;5045354;28;20025;-37
2023/05/01 06:18:42;;;;;;;7.95;5.43;;;8.00;99.90;;;;;;5044268;28;20033;-38
2023/05/01 06:21:08;;;;;;;6.82;5.80;;;8.00;99.90;;;;;;5042964;28;20040;-38
2023/05/01 06:23:34;;;;;;;8.23;5.57;;;8.10;99.90;;;;;;5031769;28;20032;-37
2023/05/01 06:26:00;;;;;;;7.00;5.85;;;8.10;99.90;;;;;;5037092;28;20036;-37
2023/05/01 06:28:25;;;;;;;7.68;5.95;;;8.10;99.90;;;;;;5044285;28;20039;-37
2023/05/01 06:30:51;;;;;;;9.05;6.38;;;8.10;99.90;;;;;;5047665;28;20120;-38
2023/05/01 06:33:16;;;;;;;8.95;6.00;;;8.10;99.90;;;;;;5047376;28;20477;-38
2023/05/01 06:35:42;;;;;;;8.73;6.65;;;8.10;99.90;;;;;;5042975;28;20021;-37
2023/05/01 06:38:07;;;;;;;9.75;6.57;;;8.10;99.90;;;;;;5048176;28;20028;-38
2023/05/01 06:40:34;;;;;;;8.15;6.35;;;8.10;99.90;;;;;;5029027;28;20021;-38
2023/05/01 06:43:01;;;;;;;10.13;6.10;;;8.10;99.90;;;;;;5047030;28;20390;-37
2023/05/01 06:45:27;;;;;;;8.13;6.50;;;8.20;99.90;;;;;;5045355;28;20036;-37
2023/05/01 06:47:52;;;;;;;7.85;5.63;;;8.20;99.90;;;;;;5050330;28;20033;-37
2023/05/01 06:50:18;;;;;;;7.57;6.22;;;8.30;99.90;;;;;;5047715;28;20076;-37
2023/05/01 06:52:44;;;;;;;10.63;6.65;;;8.30;99.90;;;;;;5025956;28;20017;-37
2023/05/01 06:55:09;;;;;;;7.95;6.15;;;8.50;99.90;;;;;;5042562;28;20366;-38
2023/05/01 06:57:35;;;;;;;6.78;5.65;;;8.50;99.90;;;;;;5047939;28;20111;-38
2023/05/01 07:00:00;;;;;;;7.47;5.93;;;8.60;99.90;;;;;;5039665;28;20026;-38
2023/05/01 07:02:26;;;;;;;7.30;5.95;;;8.70;99.90;;;;;;5044700;28;20071;-37
2023/05/01 07:04:52;;;;;;;8.07;6.20;;;8.60;99.90;;;;;;5048190;28;20486;-37
2023/05/01 07:07:17;;;;;;;7.35;6.53;;;8.60;99.90;;;;;;5046047;28;20032;-37
2023/05/01 07:09:43;;;;;;;8.13;6.53;;;8.50;99.90;;;;;;5049546;28;20028;-38
2023/05/01 07:12:09;;;;;;;10.77;6.22;;;8.50;99.90;;;;;;5048899;28;20021;-38
2023/05/01 07:14:34;;;;;;;9.80;6.32;;;8.60;99.90;;;;;;5047331;28;20033;-37
2023/05/01 07:17:01;;;;;;;7.18;6.00;;;8.60;99.90;;;;;;5048432;28;20032;-38
2023/05/01 07:19:26;;;;;;;9.82;6.90;;;8.60;99.90;;;;;;5039353;28;20040;-38
2023/05/01 07:21:52;;;;;;;8.38;5.90;;;8.60;99.90;;;;;;5027623;28;20033;-38
2023/05/01 07:24:18;;;;;;;9.02;6.35;;;8.60;99.90;;;;;;5036069;28;20104;-38
2023/05/01 07:26:43;;;;;;;9.05;7.20;;;8.60;99.90;;;;;;5043495;28;20031;-37
2023/05/01 07:29:10;;;;;;;10.20;6.65;;;8.70;99.90;;;;;;5040692;28;20087;-38
2023/05/01 07:31:37;;;;;;;7.82;6.15;;;8.80;99.90;;;;;;5047555;28;20032;-38
2023/05/01 07:34:03;;;;;;;8.57;6.38;;;9.00;99.90;;;;;;5028922;28;20045;-38
2023/05/01 07:36:29;;;;;;;9.30;6.63;;;9.10;99.90;;;;;;5045323;28;20139;-38
2023/05/01 07:38:56;;;;;;;7.45;6.30;;;9.20;99.90;;;;;;5046908;28;20033;-38
2023/05/01 07:41:24;;;;;;;9.18;5.82;;;9.30;99.90;;;;;;5047793;28;20086;-38
2023/05/01 07:43:49;;;;;;;8.10;6.67;;;9.40;99.90;;;;;;5047990;28;20041;-38
2023/05/01 07:46:15;;;;;;;7.55;6.43;;;9.40;99.90;;;;;;5047704;28;20401;-38
2023/05/01 07:48:41;;;;;;;7.30;6.07;;;9.50;99.90;;;;;;5044741;28;20021;-38
2023/05/01 07:51:07;;;;;;;7.75;6.22;;;9.50;99.90;;;;;;5039640;28;20032;-38
2023/05/01 07:53:32;;;;;;;8.18;6.32;;;9.60;99.90;;;;;;5035222;28;20647;-38
2023/05/01 07:56:08;;;;;;;8.20;6.35;;;9.60;99.90;;;;;;5038912;28;20140;-38
2023/05/01 07:58:37;;;;;;;10.70;6.68;;;9.60;99.90;;;;;;5028258;28;20025;-38
2023/05/01 08:01:04;;;;;;;9.98;6.28;;;9.60;99.90;;;;;;5044162;28;20041;-38
2023/05/01 08:03:31;;;;;;;6.80;6.00;;;9.60;99.90;;;;;;5043821;28;20123;-38
2023/05/01 08:05:56;;;;;;;9.68;6.78;;;9.60;99.90;;;;;;5036865;28;20044;-38
2023/05/01 08:08:22;;;;;;;9.77;6.15;;;9.70;99.90;;;;;;5037177;28;20361;-38
2023/05/01 08:10:48;;;;;;;6.55;5.93;;;9.70;99.90;;;;;;5045398;28;20444;-38
2023/05/01 08:13:14;;;;;;;6.45;5.82;;;9.70;99.90;;;;;;5045431;28;20037;-38
2023/05/01 08:15:41;;;;;;;8.73;6.88;;;9.60;99.90;;;;;;5044194;28;20033;-38
2023/05/01 08:18:08;;;;;;;6.93;6.10;;;9.60;99.90;;;;;;5043810;28;20064;-38
2023/05/01 08:20:36;;;;;;;8.07;6.18;;;9.60;99.90;;;;;;5046867;28;20033;-38
2023/05/01 08:23:02;;;;;;;9.02;6.55;;;9.60;99.90;;;;;;5045705;28;20025;-38
2023/05/01 08:25:28;;;;;;;8.05;6.60;;;9.70;99.90;;;;;;5044903;28;20029;-38
2023/05/01 08:27:54;;;;;;;7.25;6.40;;;9.80;99.90;;;;;;5047446;28;20090;-38
2023/05/01 08:30:19;;;;;;;8.27;6.25;;;9.90;99.90;;;;;;5047070;28;20880;-38
2023/05/01 08:32:45;;;;;;;9.75;6.20;;;9.90;99.90;;;;;;5042706;28;20043;-38
2023/05/01 08:35:11;;;;;;;7.53;6.25;;;9.90;99.90;;;;;;5041922;28;20025;-38
2023/05/01 08:37:37;;;;;;;8.38;6.72;;;10.00;99.90;;;;;;5042860;28;20025;-38
2023/05/01 08:40:07;;;;;;;8.05;6.55;;;10.10;99.90;;;;;;5044232;28;20032;-38
2023/05/01 08:42:35;;;;;;;7.13;6.20;;;10.00;99.90;;;;;;5046976;28;20044;-38
2023/05/01 08:45:03;;;;;;;8.77;6.55;;;10.10;99.90;;;;;;5047174;28;20025;-38
2023/05/01 08:47:29;;;;;;;7.30;6.10;;;10.20;99.90;;;;;;5027675;28;20040;-38
2023/05/01 08:49:56;;;;;;;7.78;6.50;;;10.30;99.90;;;;;;5043080;28;20025;-38
2023/05/01 08:52:25;;;;;;;9.85;6.78;;;10.20;99.90;;;;;;5045958;28;20028;-38
2023/05/01 08:54:55;;;;;;;6.88;6.10;;;10.30;99.90;;;;;;5041264;28;20367;-38
2023/05/01 08:57:21;;;;;;;8.32;6.70;;;10.30;99.90;;;;;;5042857;28;20451;-38
2023/05/01 08:59:49;;;;;;;8.30;6.13;;;10.40;99.90;;;;;;5038641;28;20071;-38
2023/05/01 09:02:15;;;;;;;;;;;10.40;99.90;;;;;;5042723;28;20041;-38
2023/05/01 09:04:40;;;;;;;7.22;6.00;;;10.50;99.90;;;;;;5035156;28;20274;-38
2023/05/01 09:07:08;;;;;;;9.05;6.72;;;10.60;99.90;;;;;;5037996;28;20036;-37
2023/05/01 09:09:33;;;;;;;8.77;6.80;;;10.50;99.90;;;;;;5037248;28;20036;-38
2023/05/01 09:12:12;;;;;;;10.57;6.90;;;10.50;99.90;;;;;;5036556;28;20028;-38
2023/05/01 09:14:38;;;;;;;8.70;6.82;;;10.60;99.90;;;;;;5035816;28;20033;-38
2023/05/01 09:17:03;;;;;;;9.05;6.32;;;10.60;99.90;;;;;;5028894;28;20043;-38
2023/05/01 09:19:29;;;;;;;9.55;6.88;;;10.70;99.90;;;;;;5037425;28;20028;-38
2023/05/01 09:21:55;;;;;;;8.57;6.25;;;10.60;99.90;;;;;;5046215;28;20029;-38
2023/05/01 09:24:24;;;;;;;7.82;6.90;;;10.60;99.90;;;;;;5044797;28;20040;-38
2023/05/01 09:26:51;;;;;;;9.77;6.28;;;10.60;99.90;;;;;;5042183;28;20131;-38
2023/05/01 09:29:39;;;;;;;8.35;7.13;;;10.60;99.90;;;;;;5032139;28;20163;-38
2023/05/01 09:32:19;;;;;;;8.50;7.18;;;10.60;99.90;;;;;;5041343;28;20032;-37
2023/05/01 09:34:45;;;;;;;9.23;6.95;;;10.80;99.90;;;;;;5043586;28;20033;-38
2023/05/01 09:37:23;;;;;;;9.23;6.70;;;10.90;99.90;;;;;;5036396;28;20033;-38
2023/05/01 09:39:59;;;;;;;8.13;6.45;;;11.00;99.90;;;;;;5042159;28;20049;-38
2023/05/01 09:42:24;;;;;;;8.52;6.60;;;11.10;99.90;;;;;;5040687;28;20060;-38
2023/05/01 09:44:50;;;;;;;8.88;6.25;;;11.20;99.90;;;;;;5035184;28;20497;-38
2023/05/01 09:47:28;;;;;;;8.15;5.95;;;11.20;99.90;;;;;;5027527;28;20034;-38
2023/05/01 09:49:55;;;;;;;7.80;6.73;;;11.30;99.90;;;;;;5028737;28;20079;-38
2023/05/01 09:52:21;;;;;;;8.07;7.17;;;11.40;99.90;;;;;;5045515;28;20103;-37
2023/05/01 09:54:47;;;;;;;8.00;7.03;;;11.20;99.90;;;;;;5041056;28;20037;-37
2023/05/01 09:57:12;;;;;;;6.28;5.32;;;11.30;99.90;;;;;;5042058;28;20059;-38
2023/05/01 09:59:38;;;;;;;7.00;5.95;;;11.20;99.90;;;;;;5034987;28;20072;-38
2023/05/01 10:02:04;;;;;;;6.57;5.20;;;11.10;99.90;;;;;;5042444;28;20124;-37
2023/05/01 10:04:30;;;;;;;7.13;6.43;;;11.20;99.90;;;;;;5043181;28;20041;-38
2023/05/01 10:06:57;;;;;;;10.48;7.22;;;11.00;99.90;;;;;;5042112;28;20601;-38
2023/05/01 10:09:27;;;;;;;7.47;6.70;;;11.20;99.90;;;;;;5037910;28;20056;-38
2023/05/01 10:11:56;;;;;;;10.43;7.53;;;11.30;99.90;;;;;;5033949;28;20478;-38
2023/05/01 10:14:27;;;;;;;8.75;6.80;;;11.50;99.90;;;;;;5038435;28;20029;-38
2023/05/01 10:16:53;;;;;;;6.68;5.70;;;11.50;99.90;;;;;;5044380;28;20029;-38
2023/05/01 10:19:19;;;;;;;10.15;5.95;;;11.60;99.90;;;;;;5046163;28;20031;-38
2023/05/01 10:21:45;;;;;;;8.40;6.85;;;11.30;99.90;;;;;;5039406;28;20041;-38
2023/05/01 10:24:11;;;;;;;10.35;7.05;;;11.50;99.90;;;;;;5037928;28;20060;-38
2023/05/01 10:26:37;;;;;;;8.73;6.65;;;11.60;99.90;;;;;;5027752;28;20033;-37
2023/05/01 10:29:03;;;;;;;7.95;5.57;;;11.80;99.90;;;;;;5039009;28;20110;-38
2023/05/01 10:31:31;;;;;;;9.00;6.95;;;12.00;99.90;;;;;;5031261;28;20375;-38
2023/05/01 10:34:00;;;;;;;10.10;6.28;;;12.20;99.90;;;;;;5030472;28;20039;-36
2023/05/01 10:36:36;;;;;;;10.20;7.00;;;12.30;99.90;;;;;;5043430;28;20048;-37
2023/05/01 10:39:02;;;;;;;9.50;7.38;;;12.60;99.90;;;;;;5037634;28;20029;-37
2023/05/01 10:42:03;;;;;;;8.65;6.25;;;12.60;99.90;;;;;;5031819;28;20063;-37
2023/05/01 10:44:29;;;;;;;6.70;5.72;;;12.60;99.90;;;;;;5023781;28;20741;-37
2023/05/01 10:46:55;;;;;;;7.35;6.57;;;12.80;99.90;;;;;;5033163;28;20493;-37
2023/05/01 10:49:21;;;;;;;9.48;6.70;;;12.80;99.90;;;;;;5031915;28;20026;-37
2023/05/01 10:51:59;;;;;;;8.98;5.82;;;12.90;99.90;;;;;;5036146;28;20040;-37
2023/05/01 10:54:31;;;;;;;7.50;5.97;;;12.90;99.90;;;;;;5035301;28;20627;-37
2023/05/01 10:57:00;;;;;;;8.98;6.78;;;13.00;99.90;;;;;;5031034;28;20463;-37
2023/05/01 10:59:26;;;;;;;6.95;5.75;;;13.00;99.90;;;;;;5033781;28;20060;-37
2023/05/01 11:01:53;;;;;;;8.48;6.70;;;13.00;99.90;;;;;;5038536;28;20056;-37
2023/05/01 11:04:25;;;;;;;8.10;6.45;;;13.00;99.90;;;;;;5041590;28;20078;-37
2023/05/01 11:07:06;;;;;;;7.03;6.32;;;12.90;99.90;;;;;;5032394;28;20148;-37
2023/05/01 11:09:44;;;;;;;8.00;6.25;;;13.00;99.90;;;;;;5048746;28;20382;-37
2023/05/01 11:12:29;;;;;;;8.45;6.45;;;13.10;99.90;;;;;;5035950;28;20171;-36
2023/05/01 11:15:03;;;;;;;8.63;6.57;;;13.10;99.90;;;;;;5042474;28;20135;-36
2023/05/01 11:17:40;;;;;;;9.50;6.32;;;13.30;99.90;;;;;;5041422;28;20043;-37
2023/05/01 11:20:09;;;;;;;7.10;6.40;;;13.40;99.90;;;;;;5040777;28;20543;-37
2023/05/01 11:22:36;;;;;;;7.82;6.03;;;13.50;99.90;;;;;;5044514;28;20037;-37
2023/05/01 11:25:03;;;;;;;8.00;6.38;;;13.40;99.90;;;;;;5044587;28;20371;-37
2023/05/01 11:27:32;;;;;;;7.35;6.10;;;13.30;99.90;;;;;;5041358;28;20477;-37
2023/05/01 11:29:58;;;;;;;6.68;5.78;;;13.50;99.90;;;;;;5046197;28;20709;-37
2023/05/01 11:32:28;;;;;;;7.63;6.80;;;13.60;99.90;;;;;;5037340;28;20116;-37
2023/05/01 11:34:55;;;;;;;7.57;5.68;;;13.80;99.90;;;;;;5038551;28;20099;-37
2023/05/01 11:37:41;;;;;;;7.45;5.75;;;13.90;99.90;;;;;;5036198;28;20029;-36
2023/05/01 11:40:18;;;;;;;6.68;5.35;;;13.80;99.90;;;;;;5040858;28;20756;-37
2023/05/01 11:42:44;;;;;;;8.20;6.13;;;13.80;99.90;;;;;;5042526;28;20041;-37
2023/05/01 11:45:10;;;;;;;6.72;5.93;;;13.80;99.90;;;;;;5048841;28;20474;-37
2023/05/01 11:47:37;;;;;;;6.30;5.05;;;14.10;99.90;;;;;;5025552;28;20037;-37
2023/05/01 11:50:03;;;;;;;6.78;5.40;;;14.30;99.90;;;;;;5035595;28;20376;-37
2023/05/01 11:52:29;;;;;;;8.52;6.15;;;14.40;99.90;;;;;;5044451;28;20483;-37
2023/05/01 11:54:54;;;;;;;5.72;4.93;;;14.50;99.90;;;;;;5042826;28;20021;-37
2023/05/01 11:57:20;;;;;;;7.63;5.10;;;14.40;99.90;;;;;;5031203;28;20561;-37
2023/05/01 11:59:46;;;;;;;7.60;5.65;;;14.40;99.90;;;;;;5039276;28;20037;-37
2023/05/01 12:02:19;;;;;;;5.63;4.78;;;14.30;99.90;;;;;;5044293;28;20051;-37
2023/05/01 12:04:45;;;;;;;5.88;4.97;;;14.30;99.90;;;;;;5048194;28;20091;-37
2023/05/01 12:07:22;;;;;;;5.78;5.18;;;14.30;99.90;;;;;;5042352;28;20425;-37
2023/05/01 12:09:50;;;;;;;6.28;5.68;;;14.30;99.90;;;;;;5041440;28;20120;-37
2023/05/01 12:12:16;;;;;;;7.00;4.87;;;14.30;99.90;;;;;;5034692;28;20033;-37
2023/05/01 12:14:42;;;;;;;6.93;5.32;;;14.50;99.90;;;;;;5041937;28;20041;-37
2023/05/01 12:17:10;;;;;;;7.18;5.38;;;14.50;99.90;;;;;;5037065;28;20041;-37
2023/05/01 12:19:47;;;;;;;6.20;5.13;;;14.60;99.90;;;;;;5038865;28;20033;-37
2023/05/01 12:22:13;;;;;;;7.53;5.15;;;14.60;99.90;;;;;;5043244;28;20040;-37
2023/05/01 12:24:50;;;;;;;6.90;5.40;;;14.60;99.90;;;;;;5046537;28;20100;-37
2023/05/01 12:27:15;;;;;;;5.90;5.03;;;14.50;99.90;;;;;;5033119;28;20186;-37
2023/05/01 12:29:43;;;;;;;6.15;5.28;;;14.60;99.90;;;;;;5031819;28;20538;-37
2023/05/01 12:32:09;;;;;;;6.20;4.90;;;14.80;99.90;;;;;;5032090;28;20029;-37
2023/05/01 12:34:35;;;;;;;5.22;4.72;;;14.80;99.90;;;;;;5021623;28;20036;-37
2023/05/01 12:37:01;;;;;;;6.22;5.00;;;15.10;99.90;;;;;;5049511;28;20025;-37
2023/05/01 12:39:37;;;;;;;5.57;4.80;;;15.30;99.90;;;;;;5039576;28;20454;-37
2023/05/01 12:42:03;;;;;;;6.03;5.32;;;15.40;99.90;;;;;;5042249;28;20083;-37
2023/05/01 12:44:29;;;;;;;6.45;5.38;;;15.40;99.90;;;;;;5040332;28;20504;-37
2023/05/01 12:47:07;;;;;;;5.10;4.60;;;15.30;99.90;;;;;;5044177;28;20386;-37
2023/05/01 12:49:37;;;;;;;6.20;4.63;;;15.40;99.90;;;;;;5037557;28;20021;-37
2023/05/01 12:52:07;;;;;;;5.18;4.30;;;15.60;99.90;;;;;;5042294;28;20043;-37
2023/05/01 12:54:39;;;;;;;5.57;4.82;;;15.70;99.90;;;;;;5043759;28;20059;-37